Time;durP1;ratioP1;P1;durP2;ratioP2;P2;SDS_P1;SDS_P2;PMS_P1;PMS_P2;Temp;Humidity;BMP_temperature;BMP_pressure;BME280_temperature;BME280_humidity;BME280_pressure;Samples;Min_cycle;Max_cycle;Signal;HPM_P1;HPM_P2
2023/05/09 00:04:36;;;;;;;;;;;;;;;11.96;100.00;98060.91;10400484;28;20036;-48
2023/05/09 00:09:35;;;;;;;27.38;19.75;;;;;;;11.88;100.00;98061.78;10401813;28;20003;-48
2023/05/09 00:14:34;;;;;;;26.75;19.50;;;;;;;11.88;100.00;98056.59;10399758;28;20029;-48
2023/05/09 00:19:33;;;;;;;27.17;18.95;;;;;;;11.74;100.00;98040.16;10400535;28;20425;-49
2023/05/09 00:24:31;;;;;;;30.38;20.83;;;;;;;11.71;100.00;98049.66;10400500;28;20054;-50
2023/05/09 00:29:30;;;;;;;32.58;23.15;;;;;;;11.63;100.00;98044.47;10406577;28;20087;-50
2023/05/09 00:34:29;;;;;;;33.65;21.90;;;;;;;11.39;100.00;98038.41;10407677;28;20032;-49
2023/05/09 00:39:28;;;;;;;41.20;25.52;;;;;;;11.36;100.00;98046.22;10407767;28;20032;-49
2023/05/09 00:44:27;;;;;;;;;;;;;;;10.98;100.00;98047.00;10407228;28;20036;-51
2023/05/09 00:49:26;;;;;;;40.00;25.08;;;;;;;10.87;100.00;98050.41;10406694;28;19924;-50
2023/05/09 00:54:25;;;;;;;40.85;26.45;;;;;;;10.88;100.00;98058.25;10407362;28;20113;-49
2023/05/09 00:59:24;;;;;;;41.78;25.77;;;;;;;10.87;100.00;98056.53;10407112;28;20052;-51
2023/05/09 01:04:23;;;;;;;;;;;;;;;10.84;100.00;98057.34;10406558;28;20465;-50
2023/05/09 01:09:42;;;;;;;38.33;23.83;;;;;;;10.91;100.00;98047.00;10405840;28;20401;-49
2023/05/09 01:15:00;;;;;;;39.97;24.13;;;;;;;10.99;100.00;98047.91;10406265;28;20107;-51
2023/05/09 01:20:26;;;;;;;38.20;24.65;;;;;;;11.23;100.00;98052.25;10405467;28;20083;-51
2023/05/09 01:25:34;;;;;;;36.05;22.50;;;;;;;11.38;100.00;98065.25;10406107;28;20143;-49
2023/05/09 01:30:36;;;;;;;38.38;21.60;;;;;;;11.29;100.00;98054.00;10403463;28;20067;-50
2023/05/09 01:35:36;;;;;;;34.42;20.50;;;;;;;11.18;100.00;98051.41;10405088;28;20063;-50
2023/05/09 01:40:38;;;;;;;32.08;20.05;;;;;;;11.08;100.00;98045.34;10403772;28;20068;-48
2023/05/09 01:45:38;;;;;;;25.45;17.85;;;;;;;11.06;100.00;98049.66;10405375;28;20514;-52
2023/05/09 01:50:39;;;;;;;32.05;19.50;;;;;;;11.09;100.00;98052.25;10404262;28;20068;-51
2023/05/09 01:55:40;;;;;;;30.15;19.45;;;;;;;10.80;100.00;98059.94;10404290;28;20509;-49
2023/05/09 02:00:39;;;;;;;24.90;15.77;;;;;;;10.41;100.00;98002.72;10404977;28;20083;-50
2023/05/09 02:05:40;;;;;;;24.90;17.05;;;;;;;10.74;100.00;98059.91;10403788;28;20060;-50
2023/05/09 02:10:40;;;;;;;19.33;12.98;;;;;;;10.67;100.00;98081.53;10403586;28;20127;-49
2023/05/09 02:15:39;;;;;;;21.05;15.18;;;;;;;10.72;100.00;98069.41;10404037;28;20546;-51
2023/05/09 02:20:39;;;;;;;17.42;11.63;;;;;;;10.46;100.00;98080.56;10403513;28;20063;-49
2023/05/09 02:25:39;;;;;;;17.30;11.50;;;;;;;10.61;100.00;98062.47;10403666;28;20063;-49
2023/05/09 02:30:42;;;;;;;18.35;11.18;;;;;;;10.66;100.00;98064.19;10402385;28;20371;-51
2023/05/09 02:35:45;;;;;;;18.75;11.32;;;;;;;10.82;100.00;98071.16;10403177;28;20062;-49
2023/05/09 02:40:46;;;;;;;15.43;10.43;;;;;;;10.88;100.00;98068.63;10402502;28;20577;-49
2023/05/09 02:45:45;;;;;;;14.23;9.80;;;;;;;10.91;100.00;98068.63;10403044;28;20183;-48
2023/05/09 02:50:44;;;;;;;;;;;;;;;10.82;100.00;98081.56;10402951;28;20059;-50
2023/05/09 02:55:43;;;;;;;16.07;10.27;;;;;;;10.77;100.00;98070.28;10399563;28;20031;-51
2023/05/09 03:00:42;;;;;;;;;;;;;;;10.55;100.00;98083.19;10402260;28;20124;-50
2023/05/09 03:05:41;;;;;;;16.98;10.60;;;;;;;10.48;100.00;98085.78;10402612;28;20007;-50
2023/05/09 03:10:40;;;;;;;15.70;10.20;;;;;;;10.45;100.00;98089.22;10401905;28;20112;-50
2023/05/09 03:15:39;;;;;;;14.40;9.85;;;;;;;10.18;100.00;98095.97;10404708;28;20044;-49
2023/05/09 03:20:38;;;;;;;15.13;9.88;;;;;;;10.07;100.00;98108.00;10401338;28;20548;-48
2023/05/09 03:25:37;;;;;;;17.10;8.48;;;;;;;9.72;100.00;98108.63;10401496;28;20242;-49
2023/05/09 03:30:36;;;;;;;14.55;9.45;;;;;;;9.56;100.00;98099.88;10401857;28;20119;-51
2023/05/09 03:35:34;;;;;;;13.43;7.78;;;;;;;9.48;100.00;98118.78;10400973;28;20123;-48
2023/05/09 03:40:33;;;;;;;15.15;10.27;;;;;;;9.52;100.00;98117.97;10400658;28;20111;-48
2023/05/09 03:45:34;;;;;;;16.13;9.23;;;;;;;9.58;100.00;98120.59;10400994;28;20024;-51
2023/05/09 03:50:33;;;;;;;15.07;7.97;;;;;;;9.34;100.00;98132.44;10406670;28;20068;-49
2023/05/09 03:55:32;;;;;;;17.73;9.98;;;;;;;9.42;100.00;98134.25;10403618;28;20032;-48
2023/05/09 04:00:31;;;;;;;17.35;10.52;;;;;;;9.34;100.00;98140.22;10404030;28;20042;-50
2023/05/09 04:05:32;;;;;;;13.77;9.07;;;;;;;9.51;100.00;98144.69;10412229;28;20048;-49
2023/05/09 04:10:31;;;;;;;12.35;8.48;;;;;;;9.48;100.00;98149.84;10411026;28;20060;-48
2023/05/09 04:15:30;;;;;;;;;;;;;;;9.26;100.00;98151.34;10411794;28;20553;-51
2023/05/09 04:20:30;;;;;;;9.38;4.90;;;;;;;9.40;100.00;98159.28;10411883;28;19913;-50
2023/05/09 04:25:30;;;;;;;11.20;6.18;;;;;;;9.30;100.00;98160.88;10341985;28;20467;-48
2023/05/09 04:30:29;;;;;;;9.40;5.80;;;;;;;9.40;100.00;98160.16;10328627;28;20069;-50
2023/05/09 04:35:29;;;;;;;;;;;;;;;9.53;100.00;98159.41;10328305;28;20065;-50
2023/05/09 04:40:27;;;;;;;7.77;4.47;;;;;;;9.29;100.00;98172.97;10327420;28;19952;-49
2023/05/09 04:45:26;;;;;;;8.35;4.00;;;;;;;9.05;100.00;98165.78;10325358;28;20271;-49
2023/05/09 04:50:25;;;;;;;7.70;4.13;;;;;;;8.99;100.00;98168.28;10323415;28;20454;-47
2023/05/09 04:55:25;;;;;;;5.78;3.60;;;;;;;8.79;100.00;98182.72;10324140;28;20030;-48
2023/05/09 05:00:24;;;;;;;7.72;4.43;;;;;;;9.01;100.00;98174.34;10324827;28;20112;-50
2023/05/09 05:05:23;;;;;;;6.90;4.60;;;;;;;9.21;100.00;98177.19;10324876;28;20148;-47
2023/05/09 05:10:22;;;;;;;6.72;3.83;;;;;;;9.15;100.00;98177.09;10320235;28;20107;-48
2023/05/09 05:15:21;;;;;;;5.00;2.60;;;;;;;9.27;100.00;98179.81;10322726;28;20032;-49
2023/05/09 05:20:20;;;;;;;3.08;2.13;;;;;;;9.26;100.00;98180.69;10323155;28;20437;-48
2023/05/09 05:25:19;;;;;;;;;;;;;;;9.07;100.00;98183.94;10324051;28;20544;-48
2023/05/09 05:30:19;;;;;;;1.87;1.30;;;;;;;8.90;100.00;98168.16;10320050;28;20001;-48
2023/05/09 05:35:22;;;;;;;1.10;1.00;;;;;;;8.82;100.00;98188.78;10323742;28;20383;-48
2023/05/09 05:40:21;;;;;;;3.20;1.08;;;;;;;8.92;100.00;98172.50;10322630;28;20103;-48
2023/05/09 05:45:20;;;;;;;3.97;2.63;;;;;;;9.18;100.00;98197.84;10323261;28;20033;-49
2023/05/09 05:50:18;;;;;;;;;;;;;;;9.11;100.00;98196.03;10325449;28;20514;-49
2023/05/09 05:55:17;;;;;;;3.38;1.20;;;;;;;8.92;100.00;98198.41;10325238;28;19986;-48
2023/05/09 06:00:16;;;;;;;;;;;;;;;8.91;100.00;98212.19;10325169;28;20076;-48
2023/05/09 06:05:15;;;;;;;2.58;1.90;;;;;;;8.67;100.00;98188.59;10325364;28;19913;-51
2023/05/09 06:10:17;;;;;;;5.43;3.00;;;;;;;8.86;100.00;98213.88;10325106;28;20519;-50
2023/05/09 06:15:16;;;;;;;3.58;2.08;;;;;;;9.03;100.00;98228.75;10324161;28;20571;-50
2023/05/09 06:20:15;;;;;;;5.45;3.05;;;;;;;8.97;100.00;98231.25;10324589;28;20025;-48
2023/05/09 06:25:14;;;;;;;3.13;1.90;;;;;;;8.92;100.00;98218.25;10323967;28;20064;-50
2023/05/09 06:30:13;;;;;;;2.47;2.10;;;;;;;9.02;100.00;98227.00;10324220;28;20052;-48
2023/05/09 06:35:12;;;;;;;2.60;1.90;;;;;;;8.88;100.00;98227.69;10324931;28;20057;-49
2023/05/09 06:40:11;;;;;;;3.55;2.10;;;;;;;9.02;100.00;98221.81;10323676;28;20033;-48
2023/05/09 06:45:11;;;;;;;4.28;2.22;;;;;;;9.12;100.00;98231.44;10323530;28;20091;-49
2023/05/09 06:50:10;;;;;;;3.28;2.00;;;;;;;9.17;100.00;98232.38;10320112;28;20124;-51
2023/05/09 06:55:09;;;;;;;5.00;2.17;;;;;;;9.05;100.00;98234.81;10319471;28;20482;-50
2023/05/09 07:00:08;;;;;;;;;;;;;;;9.00;100.00;98228.72;10319301;28;20091;-48
2023/05/09 07:05:08;;;;;;;1.40;1.25;;;;;;;9.10;100.00;98202.94;10320013;28;19948;-50
2023/05/09 07:10:08;;;;;;;2.72;2.20;;;;;;;9.01;100.00;98230.44;10318773;28;20379;-48
2023/05/09 07:15:08;;;;;;;1.95;1.60;;;;;;;9.14;100.00;98243.56;10319508;28;20124;-48
2023/05/09 07:20:07;;;;;;;1.42;1.33;;;;;;;9.34;100.00;98245.53;10320142;28;20553;-49
2023/05/09 07:25:07;;;;;;;2.15;1.27;;;;;;;9.11;100.00;98253.00;10318840;28;20521;-50
2023/05/09 07:30:08;;;;;;;2.83;1.88;;;;;;;8.83;100.00;98219.00;10318572;28;20117;-48
2023/05/09 07:35:07;;;;;;;1.23;1.13;;;;;;;9.16;100.00;98256.53;10319395;28;20080;-48
2023/05/09 07:40:06;;;;;;;1.60;1.40;;;;;;;9.22;100.00;98241.06;10326355;28;20061;-49
2023/05/09 07:45:06;;;;;;;2.83;1.65;;;;;;;9.50;100.00;98246.59;10327013;28;20134;-51
2023/05/09 07:50:05;;;;;;;3.15;1.92;;;;;;;9.75;100.00;98248.59;10326936;28;20106;-51
2023/05/09 07:55:05;;;;;;;2.30;1.48;;;;;;;9.98;100.00;98250.56;10325625;28;20060;-51
2023/05/09 08:00:05;;;;;;;3.22;2.20;;;;;;;9.77;100.00;98249.50;10325448;28;20124;-49
2023/05/09 08:05:05;;;;;;;3.67;1.98;;;;;;;9.53;100.00;98259.56;10326088;28;20069;-49
2023/05/09 08:10:04;;;;;;;2.40;1.50;;;;;;;9.55;100.00;98265.66;10326311;28;20072;-48
2023/05/09 08:15:04;;;;;;;2.45;2.17;;;;;;;8.36;100.00;98073.50;10326319;28;20117;-48
2023/05/09 08:20:04;;;;;;;3.55;2.00;;;;;;;9.24;100.00;98259.22;10326199;28;20117;-49
2023/05/09 08:25:04;;;;;;;1.95;1.77;;;;;;;9.23;100.00;98258.34;10326224;28;20100;-50
2023/05/09 08:30:03;;;;;;;3.20;2.80;;;;;;;9.61;100.00;98265.72;10325353;28;20152;-51
2023/05/09 08:35:02;;;;;;;5.00;2.72;;;;;;;9.97;100.00;98270.41;10325021;28;20136;-51
2023/05/09 08:40:03;;;;;;;;;;;;;;;10.32;100.00;98256.88;10325910;28;20129;-50
2023/05/09 08:45:15;;;;;;;2.53;1.80;;;;;;;9.65;100.00;98210.50;10324949;28;19957;-48
2023/05/09 08:50:16;;;;;;;4.55;3.70;;;;;;;9.99;100.00;98260.06;10327329;28;20488;-49
2023/05/09 08:55:15;;;;;;;2.72;2.33;;;;;;;9.86;100.00;98238.31;10327826;28;20480;-50
2023/05/09 09:00:16;;;;;;;3.22;1.90;;;;;;;9.64;100.00;98207.88;10327333;28;20064;-49
2023/05/09 09:05:15;;;;;;;2.75;2.13;;;;;;;9.89;100.00;98260.84;10328270;28;20061;-50
2023/05/09 09:10:14;;;;;;;1.50;1.40;;;;;;;10.15;100.00;98264.53;10327353;28;20041;-50
2023/05/09 09:15:16;;;;;;;3.70;2.20;;;;;;;9.20;100.00;98069.28;10327741;28;20084;-48
2023/05/09 09:20:20;;;;;;;2.10;1.90;;;;;;;10.69;100.00;98251.13;10326633;28;20077;-51
2023/05/09 09:25:19;;;;;;;1.73;1.63;;;;;;;10.92;100.00;98254.75;10327409;28;20064;-50
2023/05/09 09:30:18;;;;;;;;;;;;;;;10.97;100.00;98258.22;10326848;28;20128;-50
2023/05/09 09:35:17;;;;;;;3.05;2.00;;;;;;;11.01;99.16;98231.44;10326799;28;19921;-49
2023/05/09 09:40:16;;;;;;;2.42;1.70;;;;;;;11.28;97.41;98242.78;10326570;28;20036;-49
2023/05/09 09:45:17;;;;;;;2.40;1.45;;;;;;;11.42;96.30;98240.25;10326202;28;20072;-51
2023/05/09 09:50:18;;;;;;;3.45;2.25;;;;;;;11.30;97.06;98256.66;10322316;28;20087;-49
2023/05/09 09:55:19;;;;;;;3.42;2.20;;;;;;;10.91;96.24;98190.69;10322886;28;20124;-51
2023/05/09 10:00:26;;;;;;;3.50;2.10;;;;;;;11.23;96.30;98253.16;10321061;28;20117;-51
2023/05/09 10:05:27;;;;;;;4.45;2.70;;;;;;;11.44;95.54;98259.31;10322522;28;20116;-51
2023/05/09 10:10:31;;;;;;;2.88;2.33;;;;;;;11.45;95.92;98268.81;10321689;28;20072;-52
2023/05/09 10:15:31;;;;;;;3.10;1.92;;;;;;;11.44;94.59;98257.56;10321584;28;20115;-51
2023/05/09 10:20:30;;;;;;;4.15;2.60;;;;;;;11.15;94.25;98262.66;10321668;28;20064;-52
2023/05/09 10:25:43;;;;;;;4.32;2.47;;;;;;;11.09;94.53;98262.63;10318281;28;20060;-52
2023/05/09 10:31:05;;;;;;;4.50;2.33;;;;;;;10.99;95.54;98243.53;10314916;28;20124;-50
2023/05/09 10:36:05;;;;;;;2.72;2.35;;;;;;;11.29;92.50;98254.03;10316245;28;20510;-51
2023/05/09 10:41:05;;;;;;;4.82;2.90;;;;;;;11.02;93.52;98246.13;10318902;28;20068;-51
2023/05/09 10:46:05;;;;;;;5.32;2.80;;;;;;;10.79;93.86;98243.38;10312923;28;20528;-49
2023/05/09 10:51:04;;;;;;;3.95;2.88;;;;;;;10.59;93.88;98245.00;10315312;28;20125;-52
2023/05/09 10:56:03;;;;;;;4.60;3.70;;;;;;;10.44;95.81;98269.09;10319864;28;20133;-49
2023/05/09 11:01:03;;;;;;;;;;;;;;;8.75;94.94;98011.03;10315282;28;20129;-50
2023/05/09 11:06:02;;;;;;;4.60;2.75;;;;;;;10.33;96.50;98262.94;10317515;28;20019;-49
2023/05/09 11:11:21;;;;;;;2.60;2.20;;;;;;;10.13;96.53;98255.88;10318702;28;20154;-51
2023/05/09 11:16:20;;;;;;;3.33;2.40;;;;;;;10.26;96.27;98262.03;10319616;28;20136;-49
2023/05/09 11:21:19;;;;;;;3.65;3.28;;;;;;;10.46;96.89;98263.91;10319287;28;20033;-50
2023/05/09 11:26:22;;;;;;;7.10;5.40;;;;;;;10.57;96.97;98264.88;10319246;28;20426;-51
2023/05/09 11:31:21;;;;;;;7.65;5.78;;;;;;;10.48;95.99;98265.66;10319894;28;20506;-50
2023/05/09 11:36:28;;;;;;;6.30;3.33;;;;;;;9.97;97.41;98274.72;10318515;28;20400;-49
2023/05/09 11:41:27;;;;;;;4.97;3.72;;;;;;;10.03;98.88;98269.63;10317232;28;20198;-49
2023/05/09 11:46:26;;;;;;;4.88;3.92;;;;;;;9.87;99.41;98272.91;10318918;28;20117;-50
2023/05/09 11:51:25;;;;;;;6.70;4.25;;;;;;;9.68;99.65;98220.88;10318567;28;20064;-52
2023/05/09 11:56:24;;;;;;;6.80;4.35;;;;;;;10.09;99.58;98263.59;10318564;28;20052;-51
2023/05/09 12:01:23;;;;;;;5.97;4.20;;;;;;;10.25;100.00;98255.09;10318032;28;20041;-49
2023/05/09 12:06:23;;;;;;;;;;;;;;;10.16;99.11;98253.28;10318711;28;20148;-50
2023/05/09 12:11:23;;;;;;;5.93;4.45;;;;;;;10.20;100.00;98243.81;10318092;28;19967;-49
2023/05/09 12:16:22;;;;;;;6.53;4.00;;;;;;;10.16;99.42;98260.22;10318202;28;20161;-51
2023/05/09 12:21:21;;;;;;;4.45;3.45;;;;;;;10.15;97.14;98238.59;10317826;28;20033;-51
2023/05/09 12:26:21;;;;;;;7.28;4.28;;;;;;;10.32;97.74;98233.53;10325571;28;20111;-50
2023/05/09 12:31:21;;;;;;;3.70;2.65;;;;;;;10.25;95.91;98238.69;10324442;28;20081;-51
2023/05/09 12:36:20;;;;;;;7.35;5.05;;;;;;;10.35;96.66;98235.28;10324777;28;20148;-49
2023/05/09 12:41:20;;;;;;;8.73;5.13;;;;;;;10.42;97.90;98231.88;10325006;28;20124;-49
2023/05/09 12:46:20;;;;;;;4.22;3.30;;;;;;;10.14;96.96;98218.72;10325789;28;20061;-51
2023/05/09 12:51:20;;;;;;;5.97;3.83;;;;;;;10.25;96.36;98223.13;10324088;28;20136;-51
2023/05/09 12:56:22;;;;;;;5.40;2.25;;;;;;;10.14;96.13;98200.56;10324882;28;20120;-51
2023/05/09 13:01:28;;;;;;;6.65;4.25;;;;;;;10.46;95.64;98214.63;10321633;28;20205;-50
2023/05/09 13:06:27;;;;;;;5.78;3.42;;;;;;;10.33;95.44;98211.06;10324642;28;20488;-50
2023/05/09 13:11:26;;;;;;;6.03;2.88;;;;;;;9.97;95.94;98153.75;10322548;28;20120;-51
2023/05/09 13:16:25;;;;;;;5.80;3.00;;;;;;;10.23;96.00;98185.91;10325172;28;20121;-51
2023/05/09 13:21:24;;;;;;;7.75;4.97;;;;;;;10.07;96.21;98193.56;10323778;28;20152;-52
2023/05/09 13:26:24;;;;;;;3.88;3.25;;;;;;;10.07;95.29;98198.75;10325089;28;20392;-51
2023/05/09 13:31:23;;;;;;;3.33;2.40;;;;;;;9.83;96.13;98198.56;10325251;28;20087;-50
2023/05/09 13:36:22;;;;;;;3.08;2.35;;;;;;;9.98;95.73;98185.75;10326254;28;20120;-50
2023/05/09 13:41:22;;;;;;;2.38;2.10;;;;;;;9.86;95.01;98170.06;10325952;28;20121;-51
2023/05/09 13:46:21;;;;;;;2.20;1.95;;;;;;;9.65;96.21;98183.69;10326491;28;20125;-50
2023/05/09 13:51:20;;;;;;;2.97;2.60;;;;;;;9.64;97.90;98184.56;10327341;28;20081;-51
2023/05/09 13:56:19;;;;;;;;;;;;;;;9.67;97.20;98182.00;10329497;28;20083;-50
2023/05/09 14:01:18;;;;;;;3.53;2.92;;;;;;;9.57;97.22;98181.03;10329004;28;19998;-49
2023/05/09 14:06:17;;;;;;;6.40;4.18;;;;;;;9.67;98.13;98179.41;10328179;28;20100;-49
2023/05/09 14:11:16;;;;;;;6.50;4.60;;;;;;;9.69;97.62;98183.75;10328674;28;20068;-51
2023/05/09 14:16:15;;;;;;;5.22;3.20;;;;;;;9.50;98.82;98192.19;10328660;28;20136;-51
2023/05/09 14:21:14;;;;;;;6.50;3.33;;;;;;;9.30;100.00;98177.31;10328270;28;20080;-50
2023/05/09 14:26:13;;;;;;;;;;;;;;;9.40;100.00;98182.59;10329650;28;20076;-50
2023/05/09 14:31:12;;;;;;;12.48;5.90;;;;;;;9.47;100.00;98187.00;10328088;28;19956;-48
2023/05/09 14:36:11;;;;;;;7.03;5.45;;;;;;;9.43;100.00;98174.84;10327824;28;20528;-49
2023/05/09 14:41:10;;;;;;;;;;;;;;;9.44;100.00;98180.06;10327493;28;20065;-51
2023/05/09 14:46:09;;;;;;;10.50;6.68;;;;;;;9.56;100.00;98176.72;10327344;28;19909;-50
2023/05/09 14:51:08;;;;;;;10.10;6.18;;;;;;;9.29;100.00;98177.28;10323999;28;20045;-48
2023/05/09 14:56:09;;;;;;;9.38;6.13;;;;;;;9.23;100.00;98169.41;10323165;28;20833;-51
2023/05/09 15:01:08;;;;;;;10.55;6.60;;;;;;;8.92;100.00;98179.41;10322980;28;20092;-50
2023/05/09 15:06:07;;;;;;;11.98;8.38;;;;;;;9.06;100.00;98177.00;10324140;28;20029;-51
2023/05/09 15:11:06;;;;;;;10.82;6.25;;;;;;;9.05;100.00;98175.28;10323379;28;20037;-49
2023/05/09 15:16:05;;;;;;;7.78;4.47;;;;;;;8.64;100.00;98178.19;10323011;28;20140;-51
2023/05/09 15:21:04;;;;;;;11.20;7.68;;;;;;;8.87;100.00;98168.16;10322168;28;20118;-51
2023/05/09 15:26:03;;;;;;;39.75;26.85;;;;;;;9.03;100.00;98164.03;10322552;28;20470;-51
2023/05/09 15:31:02;;;;;;;9.40;5.22;;;;;;;9.03;100.00;98166.63;10322175;28;20067;-51
2023/05/09 15:36:02;;;;;;;21.80;15.38;;;;;;;9.31;100.00;98167.81;10323000;28;20596;-50
2023/05/09 15:41:00;;;;;;;;;;;;;;;9.45;100.00;98161.06;10322336;28;20080;-49
2023/05/09 15:46:00;;;;;;;15.40;12.45;;;;;;;9.56;100.00;98171.53;10321683;28;19948;-51
2023/05/09 15:50:59;;;;;;;21.38;17.23;;;;;;;9.55;100.00;98167.19;10324338;28;20195;-49
2023/05/09 15:55:59;;;;;;;20.42;17.77;;;;;;;9.75;100.00;98164.81;10320864;28;20228;-51
2023/05/09 16:00:58;;;;;;;10.93;7.72;;;;;;;9.81;100.00;98159.66;10327222;28;20502;-49
2023/05/09 16:05:57;;;;;;;12.75;10.93;;;;;;;9.72;100.00;98163.06;10327000;28;20844;-49
2023/05/09 16:10:59;;;;;;;11.07;8.27;;;;;;;9.64;100.00;98167.28;10329347;28;20531;-50
2023/05/09 16:15:59;;;;;;;15.55;10.43;;;;;;;9.63;100.00;98165.56;10328463;28;20543;-51
2023/05/09 16:20:58;;;;;;;18.10;13.48;;;;;;;9.75;100.00;98170.00;10328236;28;20057;-49
2023/05/09 16:25:57;;;;;;;22.98;17.10;;;;;;;9.83;100.00;98170.91;10329357;28;20065;-51
2023/05/09 16:30:56;;;;;;;27.25;19.38;;;;;;;9.76;100.00;98167.38;10327547;28;20045;-51
2023/05/09 16:35:55;;;;;;;17.92;13.43;;;;;;;9.79;100.00;98161.34;10328695;28;20738;-51
2023/05/09 16:40:54;;;;;;;;;;;;;;;9.97;100.00;98168.44;10328861;28;20072;-50
2023/05/09 16:45:53;;;;;;;14.90;11.48;;;;;;;9.96;100.00;98180.53;10328316;28;19917;-52
2023/05/09 16:50:55;;;;;;;13.23;9.18;;;;;;;9.92;100.00;98172.72;10323495;28;20067;-51
2023/05/09 16:55:54;;;;;;;19.70;13.88;;;;;;;9.76;100.00;98174.31;10324471;28;20514;-51
2023/05/09 17:00:54;;;;;;;14.05;9.80;;;;;;;9.92;100.00;98176.16;10321764;28;20510;-52
2023/05/09 17:05:52;;;;;;;15.88;10.30;;;;;;;9.76;100.00;98169.97;10321336;28;20530;-51
2023/05/09 17:10:51;;;;;;;15.38;9.15;;;;;;;9.80;100.00;98168.28;10315328;28;20491;-52
2023/05/09 17:15:51;;;;;;;12.50;10.02;;;;;;;9.93;100.00;98169.25;10323542;28;20450;-51
2023/05/09 17:20:50;;;;;;;11.82;8.48;;;;;;;10.01;100.00;98171.94;10324003;28;20527;-51
2023/05/09 17:25:50;;;;;;;;;;;;;;;9.91;100.00;98163.19;10317676;28;20133;-52
2023/05/09 17:30:49;;;;;;;24.65;19.05;;;;;;;9.73;100.00;98156.16;10317035;28;20007;-52
2023/05/09 17:35:48;;;;;;;13.77;11.18;;;;;;;9.90;100.00;98166.66;10321326;28;20112;-52
2023/05/09 17:40:48;;;;;;;10.18;7.50;;;;;;;9.92;100.00;98170.13;10319266;28;20567;-50
2023/05/09 17:45:46;;;;;;;;;;;;;;;10.02;100.00;98174.53;10321106;28;20084;-51
2023/05/09 17:50:45;;;;;;;16.35;13.65;;;;;;;9.97;100.00;98165.84;10321574;28;19925;-52
2023/05/09 17:55:44;;;;;;;10.98;8.23;;;;;;;9.94;100.00;98165.81;10319917;28;20055;-52
2023/05/09 18:00:43;;;;;;;9.68;6.93;;;;;;;10.10;100.00;98172.88;10321099;28;20037;-52
2023/05/09 18:05:42;;;;;;;18.17;10.25;;;;;;;10.23;100.00;98172.94;10320872;28;20025;-52
2023/05/09 18:10:42;;;;;;;13.57;8.05;;;;;;;10.24;100.00;98179.84;10321692;28;20045;-51
2023/05/09 18:15:41;;;;;;;10.25;6.95;;;;;;;10.30;100.00;98179.91;10320284;28;20133;-50
2023/05/09 18:20:40;;;;;;;12.88;7.95;;;;;;;10.31;100.00;98182.53;10320400;28;20033;-52
2023/05/09 18:25:40;;;;;;;7.97;5.25;;;;;;;10.21;100.00;98149.59;10321261;28;20480;-52
2023/05/09 18:30:40;;;;;;;7.85;5.53;;;;;;;9.59;100.00;98070.50;10320015;28;20963;-52
2023/05/09 18:35:38;;;;;;;7.75;5.32;;;;;;;10.37;100.00;98181.69;10319750;28;20511;-52
2023/05/09 18:40:37;;;;;;;11.27;8.60;;;;;;;10.40;100.00;98182.59;10320007;28;20029;-52
2023/05/09 18:45:36;;;;;;;15.13;9.90;;;;;;;10.33;100.00;98186.00;10320945;28;20479;-51
2023/05/09 18:50:35;;;;;;;11.82;8.77;;;;;;;10.10;100.00;98178.06;10323659;28;20131;-52
2023/05/09 18:55:34;;;;;;;;;;;;;;;10.16;100.00;98185.00;10323916;28;20641;-52
2023/05/09 19:00:34;;;;;;;9.02;6.65;;;;;;;10.13;100.00;98182.41;10322707;28;20449;-51
2023/05/09 19:05:34;;;;;;;7.50;4.45;;;;;;;10.20;100.00;98185.03;10322055;28;20250;-52
2023/05/09 19:10:34;;;;;;;4.80;3.50;;;;;;;10.20;100.00;98164.28;10324091;28;20514;-51
2023/05/09 19:15:33;;;;;;;4.93;3.20;;;;;;;10.26;100.00;98186.81;10322765;28;20495;-51
2023/05/09 19:20:32;;;;;;;4.07;3.05;;;;;;;10.32;100.00;98180.78;10322801;28;20507;-51
2023/05/09 19:25:32;;;;;;;3.55;3.20;;;;;;;10.30;100.00;98185.09;10322924;28;20044;-51
2023/05/09 19:30:32;;;;;;;3.80;3.30;;;;;;;10.32;100.00;98178.19;10323108;28;20068;-50
2023/05/09 19:35:31;;;;;;;7.05;4.10;;;;;;;10.27;100.00;98179.91;10320535;28;20068;-49
2023/05/09 19:40:30;;;;;;;4.63;3.47;;;;;;;10.18;100.00;98181.56;10322816;28;20037;-51
2023/05/09 19:45:29;;;;;;;7.53;3.85;;;;;;;10.19;100.00;98178.13;10322069;28;20401;-50
2023/05/09 19:50:29;;;;;;;6.90;4.35;;;;;;;10.07;100.00;98175.41;10317450;28;20073;-51
2023/05/09 19:55:28;;;;;;;9.27;5.95;;;;;;;10.14;100.00;98173.75;10318593;28;20562;-51
2023/05/09 20:00:27;;;;;;;6.95;4.32;;;;;;;10.04;100.00;98177.13;10317163;28;20503;-54
2023/05/09 20:05:26;;;;;;;69.55;39.05;;;;;;;10.11;100.00;98179.78;10317737;28;20109;-51
2023/05/09 20:10:27;;;;;;;197.32;102.70;;;;;;;10.18;100.00;98180.69;10318281;28;20037;-51
2023/05/09 20:15:26;;;;;;;38.78;20.58;;;;;;;10.21;100.00;98178.13;10318599;28;20145;-49
2023/05/09 20:20:25;;;;;;;;;;;;;;;10.31;100.00;98172.16;10319319;28;20171;-51
2023/05/09 20:25:24;;;;;;;28.38;17.70;;;;;;;10.35;100.00;98160.91;10318514;28;19944;-51
2023/05/09 20:30:23;;;;;;;11.93;8.68;;;;;;;10.43;100.00;98160.97;10318263;28;20116;-49
2023/05/09 20:35:22;;;;;;;12.40;7.55;;;;;;;10.46;100.00;98155.81;10318705;28;20044;-50
2023/05/09 20:40:22;;;;;;;4.88;3.65;;;;;;;10.30;100.00;98128.91;10318220;28;20076;-50
2023/05/09 20:45:21;;;;;;;5.10;3.70;;;;;;;10.41;100.00;98149.72;10322520;28;20077;-51
2023/05/09 20:50:20;;;;;;;9.10;6.15;;;;;;;10.25;100.00;98127.16;10324898;28;20042;-49
2023/05/09 20:55:19;;;;;;;10.82;7.03;;;;;;;10.46;100.00;98150.63;10324903;28;20403;-49
2023/05/09 21:00:18;;;;;;;;;;;;;;;10.39;100.00;98144.53;10324538;28;20516;-50
2023/05/09 21:05:16;;;;;;;12.38;7.22;;;;;;;10.47;100.00;98135.91;10324190;28;20430;-49
2023/05/09 21:10:16;;;;;;;6.63;4.80;;;;;;;10.42;100.00;98143.66;10323934;28;20629;-51
2023/05/09 21:15:14;;;;;;;;;;;;;;;10.46;100.00;98140.25;10324822;28;20088;-51
2023/05/09 21:20:13;;;;;;;9.20;5.53;;;;;;;10.16;100.00;98074.34;10322232;28;20010;-50
2023/05/09 21:25:12;;;;;;;;;;;;;;;10.56;100.00;98130.78;10323140;28;20112;-51
2023/05/09 21:30:11;;;;;;;13.85;7.53;;;;;;;10.59;100.00;98133.41;10323119;28;19971;-50
2023/05/09 21:35:11;;;;;;;9.32;6.13;;;;;;;10.57;100.00;98128.19;10322958;28;20029;-51
2023/05/09 21:40:14;;;;;;;8.18;5.40;;;;;;;10.57;100.00;98127.34;10322288;28;20556;-50
2023/05/09 21:45:13;;;;;;;10.32;5.50;;;;;;;10.60;100.00;98120.41;10322926;28;20057;-51
2023/05/09 21:50:12;;;;;;;;;;;;;;;10.61;100.00;98122.16;10325251;28;20507;-51
2023/05/09 21:55:11;;;;;;;9.37;6.33;;;;;;;10.68;100.00;98123.03;10324446;28;19955;-50
2023/05/09 22:00:13;;;;;;;;;;;;;;;10.70;100.00;98120.47;10322972;28;20053;-51
2023/05/09 22:05:12;;;;;;;14.55;7.90;;;;;;;10.62;100.00;98110.91;10323256;28;20362;-49
2023/05/09 22:10:11;;;;;;;11.43;6.90;;;;;;;10.66;100.00;98105.72;10319511;28;20464;-50
2023/05/09 22:15:10;;;;;;;13.27;7.55;;;;;;;10.53;100.00;98084.91;10322382;28;20038;-49
2023/05/09 22:20:10;;;;;;;12.52;7.43;;;;;;;10.74;100.00;98096.25;10321391;28;20040;-51
2023/05/09 22:25:09;;;;;;;10.50;6.93;;;;;;;10.70;100.00;98102.28;10321236;28;20068;-51
2023/05/09 22:30:10;;;;;;;;;;;;;;;10.59;100.00;98110.03;10322794;28;20507;-51
2023/05/09 22:35:09;;;;;;;15.77;8.40;;;;;;;10.61;100.00;98104.00;10323158;28;19952;-49
2023/05/09 22:40:09;;;;;;;15.38;9.45;;;;;;;10.64;100.00;98099.69;10324185;28;20033;-50
2023/05/09 22:45:08;;;;;;;13.98;8.63;;;;;;;10.59;100.00;98090.16;10324074;28;20072;-51
2023/05/09 22:50:08;;;;;;;14.05;10.77;;;;;;;10.56;100.00;98084.91;10321293;28;20144;-51
2023/05/09 22:55:07;;;;;;;15.55;10.50;;;;;;;10.61;100.00;98078.03;10320588;28;20148;-49
2023/05/09 23:00:07;;;;;;;13.38;9.40;;;;;;;10.47;100.00;98065.84;10319757;28;20124;-49
2023/05/09 23:05:07;;;;;;;13.45;9.48;;;;;;;10.47;100.00;98061.56;10320752;28;20116;-49
2023/05/09 23:10:08;;;;;;;17.00;9.52;;;;;;;10.55;100.00;98064.19;10319782;28;20288;-51
2023/05/09 23:15:07;;;;;;;19.98;11.85;;;;;;;10.48;100.00;98063.28;10319888;28;20083;-49